Time;durP1;ratioP1;P1;durP2;ratioP2;P2;SDS_P1;SDS_P2;PMS_P1;PMS_P2;Temp;Humidity;BMP_temperature;BMP_pressure;BME280_temperature;BME280_humidity;BME280_pressure;Samples;Min_cycle;Max_cycle;Signal;HPM_P1;HPM_P2
2023/12/23 00:02:16;;;;;;;15.80;3.42;;;;;;;;;;5027488;28;20045;-72
2023/12/23 00:04:42;;;;;;;19.58;3.92;;;;;;;;;;5005580;28;20053;-73
2023/12/23 00:07:12;;;;;;;10.48;3.40;;;;;;;;;;5022841;28;20069;-73
2023/12/23 00:09:38;;;;;;;12.25;3.78;;;;;;;;;;5003208;28;20058;-73
2023/12/23 00:12:08;;;;;;;15.93;3.95;;;;;;;;;;5005669;28;20052;-73
2023/12/23 00:14:34;;;;;;;19.77;3.88;;;;;;;;;;5024445;28;20116;-73
2023/12/23 00:17:00;;;;;;;14.85;3.35;;;;;;;;;;5017700;28;20578;-73
2023/12/23 00:19:26;;;;;;;12.45;2.97;;;;;;;;;;5001957;28;20172;-72
2023/12/23 00:21:54;;;;;;;16.23;3.80;;;;;;;;;;5006507;28;20049;-72
2023/12/23 00:24:20;;;;;;;15.57;3.47;;;;;;;;;;5003721;28;20056;-72
2023/12/23 00:26:46;;;;;;;18.85;3.67;;;;;;;;;;5006326;28;21004;-72
2023/12/23 00:29:12;;;;;;;11.57;3.70;;;;;;;;;;5008598;28;20049;-72
2023/12/23 00:31:38;;;;;;;13.80;3.33;;;;;;;;;;5008325;28;20046;-73
2023/12/23 00:34:04;;;;;;;14.55;3.15;;;;;;;;;;5006169;28;20041;-72
2023/12/23 00:36:31;;;;;;;8.40;3.08;;;;;;;;;;5004553;28;20060;-73
2023/12/23 00:38:57;;;;;;;12.93;2.60;;;;;;;;;;5003543;28;20072;-72
2023/12/23 00:41:23;;;;;;;10.43;2.83;;;;;;;;;;5002032;28;20051;-72
2023/12/23 00:43:49;;;;;;;15.00;3.45;;;;;;;;;;5004743;28;20072;-72
2023/12/23 00:46:16;;;;;;;8.35;2.58;;;;;;;;;;5002838;28;20041;-72
2023/12/23 00:48:42;;;;;;;9.02;3.08;;;;;;;;;;5004537;28;20100;-72
2023/12/23 00:51:09;;;;;;;9.93;3.28;;;;;;;;;;5005290;28;20056;-72
2023/12/23 00:53:35;;;;;;;13.85;3.63;;;;;;;;;;5006136;28;20497;-73
2023/12/23 00:56:05;;;;;;;7.82;2.85;;;;;;;;;;4999172;28;20053;-73
2023/12/23 00:58:31;;;;;;;6.30;2.78;;;;;;;;;;5014068;28;20127;-72
2023/12/23 01:00:57;;;;;;;8.30;2.63;;;;;;;;;;5002630;28;20550;-72
2023/12/23 01:03:23;;;;;;;9.93;2.95;;;;;;;;;;5024941;28;20061;-73
2023/12/23 01:05:49;;;;;;;8.90;2.75;;;;;;;;;;5006385;28;20058;-73
2023/12/23 01:08:18;;;;;;;12.68;3.58;;;;;;;;;;5005715;28;20444;-73
2023/12/23 01:10:46;;;;;;;10.05;3.20;;;;;;;;;;5004295;28;20049;-73
2023/12/23 01:13:12;;;;;;;12.68;2.70;;;;;;;;;;5007029;28;20052;-72
2023/12/23 01:15:38;;;;;;;10.77;3.33;;;;;;;;;;5008456;28;20049;-72
2023/12/23 01:18:04;;;;;;;13.60;3.03;;;;;;;;;;5025274;28;20366;-72
2023/12/23 01:20:30;;;;;;;12.52;3.30;;;;;;;;;;5007848;28;20602;-73
2023/12/23 01:22:56;;;;;;;15.85;3.67;;;;;;;;;;5027585;28;20049;-72
2023/12/23 01:25:23;;;;;;;12.48;3.90;;;;;;;;;;5005812;28;20052;-73
2023/12/23 01:27:49;;;;;;;10.13;2.90;;;;;;;;;;5008207;28;20459;-73
2023/12/23 01:30:15;;;;;;;16.25;4.03;;;;;;;;;;5006363;28;20042;-73
2023/12/23 01:32:41;;;;;;;13.13;3.22;;;;;;;;;;5008492;28;20049;-72
2023/12/23 01:35:07;;;;;;;8.23;2.80;;;;;;;;;;5011894;28;20673;-73
2023/12/23 01:37:33;;;;;;;6.80;2.20;;;;;;;;;;5010407;28;20057;-72
2023/12/23 01:39:59;;;;;;;6.63;2.20;;;;;;;;;;5009461;28;20067;-73
2023/12/23 01:42:26;;;;;;;10.80;2.63;;;;;;;;;;5011198;28;20497;-72
2023/12/23 01:44:52;;;;;;;6.40;2.75;;;;;;;;;;5006871;28;20501;-72
2023/12/23 01:47:18;;;;;;;15.45;3.42;;;;;;;;;;5006045;28;20041;-73
2023/12/23 01:49:44;;;;;;;18.27;3.42;;;;;;;;;;5023876;28;20049;-73
2023/12/23 01:52:11;;;;;;;9.88;2.92;;;;;;;;;;5020045;28;20041;-73
2023/12/23 01:54:37;;;;;;;15.10;3.03;;;;;;;;;;5005087;28;20383;-73
2023/12/23 01:57:03;;;;;;;14.38;3.30;;;;;;;;;;5005025;28;20397;-73
2023/12/23 01:59:29;;;;;;;12.45;3.38;;;;;;;;;;5004043;28;20177;-73
2023/12/23 02:01:55;;;;;;;11.20;2.80;;;;;;;;;;5008301;28;20048;-72
2023/12/23 02:04:21;;;;;;;14.32;3.30;;;;;;;;;;5002771;28;20049;-73
2023/12/23 02:06:47;;;;;;;11.32;2.92;;;;;;;;;;5004694;28;20107;-73
2023/12/23 02:09:16;;;;;;;14.95;3.63;;;;;;;;;;5005129;28;20402;-73
2023/12/23 02:11:54;;;;;;;17.90;3.38;;;;;;;;;;5004908;28;20108;-73
2023/12/23 02:14:21;;;;;;;10.68;3.28;;;;;;;;;;5003711;28;20053;-73
2023/12/23 02:17:07;;;;;;;21.65;4.55;;;;;;;;;;5006770;28;20053;-73
2023/12/23 02:19:33;;;;;;;18.70;3.22;;;;;;;;;;5002871;28;20037;-72
2023/12/23 02:22:00;;;;;;;18.50;3.40;;;;;;;;;;5008387;28;20401;-73
2023/12/23 02:24:26;;;;;;;17.52;3.45;;;;;;;;;;5011123;28;20053;-72
2023/12/23 02:26:56;;;;;;;16.33;3.35;;;;;;;;;;5027837;28;20064;-73
2023/12/23 02:29:23;;;;;;;10.48;2.72;;;;;;;;;;5004756;28;20041;-73
2023/12/23 02:31:50;;;;;;;15.75;3.05;;;;;;;;;;5026668;28;20041;-72
2023/12/23 02:34:16;;;;;;;17.13;2.75;;;;;;;;;;5025370;28;20065;-73
2023/12/23 02:36:49;;;;;;;11.73;3.17;;;;;;;;;;5006589;28;20659;-73
2023/12/23 02:39:15;;;;;;;16.67;3.03;;;;;;;;;;5010608;28;20136;-73
2023/12/23 02:41:41;;;;;;;14.20;2.85;;;;;;;;;;5025732;28;20087;-73
2023/12/23 02:44:07;;;;;;;17.27;4.30;;;;;;;;;;5006311;28;20049;-72
2023/12/23 02:46:33;;;;;;;17.75;3.70;;;;;;;;;;5009309;28;20124;-72
2023/12/23 02:49:00;;;;;;;16.73;4.20;;;;;;;;;;5017205;28;20045;-73
2023/12/23 02:51:26;;;;;;;11.77;3.13;;;;;;;;;;5032436;28;20481;-72
2023/12/23 02:53:52;;;;;;;18.55;3.00;;;;;;;;;;5029514;28;20045;-73
2023/12/23 02:56:18;;;;;;;9.00;2.80;;;;;;;;;;5011447;28;20042;-72
2023/12/23 02:58:49;;;;;;;14.75;3.58;;;;;;;;;;5014940;28;20041;-73
2023/12/23 03:01:19;;;;;;;15.90;3.22;;;;;;;;;;5025254;28;20142;-73
2023/12/23 03:03:46;;;;;;;12.10;3.00;;;;;;;;;;5011868;28;20179;-73
2023/12/23 03:06:15;;;;;;;14.93;2.88;;;;;;;;;;5035906;28;20053;-73
2023/12/23 03:08:42;;;;;;;12.80;2.60;;;;;;;;;;5012557;28;20091;-73
2023/12/23 03:11:08;;;;;;;10.18;2.78;;;;;;;;;;5011750;28;20050;-73
2023/12/23 03:13:34;;;;;;;13.32;2.83;;;;;;;;;;5022567;28;20518;-73
2023/12/23 03:16:00;;;;;;;14.82;3.15;;;;;;;;;;5021270;28;20115;-73
2023/12/23 03:18:26;;;;;;;18.70;3.08;;;;;;;;;;5007114;28;20364;-73
2023/12/23 03:20:52;;;;;;;7.68;2.50;;;;;;;;;;5003851;28;20046;-73
2023/12/23 03:23:18;;;;;;;12.23;2.70;;;;;;;;;;5000802;28;20559;-73
2023/12/23 03:25:44;;;;;;;9.73;2.55;;;;;;;;;;5007173;28;20103;-73
2023/12/23 03:28:10;;;;;;;9.27;2.40;;;;;;;;;;5007448;28;20557;-73
2023/12/23 03:30:36;;;;;;;6.00;2.47;;;;;;;;;;5002375;28;20528;-73
2023/12/23 03:33:02;;;;;;;12.48;2.70;;;;;;;;;;5003756;28;20076;-73
2023/12/23 03:35:29;;;;;;;9.93;3.72;;;;;;;;;;5010187;28;20429;-73
2023/12/23 03:37:55;;;;;;;12.13;3.05;;;;;;;;;;5005032;28;20080;-73
2023/12/23 03:40:21;;;;;;;11.93;2.80;;;;;;;;;;5007496;28;20037;-73
2023/12/23 03:42:47;;;;;;;8.77;2.50;;;;;;;;;;5012300;28;20056;-73
2023/12/23 03:45:13;;;;;;;8.82;2.53;;;;;;;;;;5005050;28;20058;-73
2023/12/23 03:47:40;;;;;;;11.18;2.30;;;;;;;;;;5009745;28;20038;-73
2023/12/23 03:50:07;;;;;;;11.63;2.53;;;;;;;;;;5015718;28;20057;-73
2023/12/23 03:52:33;;;;;;;5.78;2.58;;;;;;;;;;5012089;28;20248;-73
2023/12/23 03:54:59;;;;;;;12.15;2.92;;;;;;;;;;5016123;28;20087;-73
2023/12/23 03:57:25;;;;;;;14.10;2.65;;;;;;;;;;5012790;28;20049;-73
2023/12/23 03:59:51;;;;;;;7.97;2.20;;;;;;;;;;5010712;28;20099;-73
2023/12/23 04:02:17;;;;;;;6.35;2.47;;;;;;;;;;4994085;28;20501;-73
2023/12/23 04:04:43;;;;;;;7.07;2.17;;;;;;;;;;5013338;28;20102;-73
2023/12/23 04:07:12;;;;;;;7.15;2.15;;;;;;;;;;5010183;28;20049;-73
2023/12/23 04:09:38;;;;;;;4.85;2.17;;;;;;;;;;4998314;28;20141;-73
2023/12/23 04:12:04;;;;;;;5.85;2.03;;;;;;;;;;5002575;28;20442;-73
2023/12/23 04:14:31;;;;;;;3.90;1.88;;;;;;;;;;5001923;28;20060;-74
2023/12/23 04:16:57;;;;;;;3.80;1.60;;;;;;;;;;5006537;28;20053;-73
2023/12/23 04:19:23;;;;;;;7.03;2.15;;;;;;;;;;5008725;28;20195;-73
2023/12/23 04:21:49;;;;;;;4.72;1.67;;;;;;;;;;5010505;28;20160;-74
2023/12/23 04:24:15;;;;;;;2.53;1.80;;;;;;;;;;5014028;28;20104;-73
2023/12/23 04:26:41;;;;;;;2.67;1.60;;;;;;;;;;5003463;28;20468;-74
2023/12/23 04:29:07;;;;;;;2.25;1.60;;;;;;;;;;5007440;28;20140;-73
2023/12/23 04:31:33;;;;;;;6.93;2.00;;;;;;;;;;5010916;28;20124;-74
2023/12/23 04:33:59;;;;;;;21.92;4.65;;;;;;;;;;5029317;28;20053;-73
2023/12/23 04:36:25;;;;;;;29.13;6.30;;;;;;;;;;5009207;28;20042;-73
2023/12/23 04:38:51;;;;;;;25.92;6.43;;;;;;;;;;5013268;28;20490;-73
2023/12/23 04:41:17;;;;;;;31.67;8.23;;;;;;;;;;5005480;28;20048;-73
2023/12/23 04:43:43;;;;;;;19.92;6.28;;;;;;;;;;5032316;28;20050;-73
2023/12/23 04:46:09;;;;;;;31.00;6.93;;;;;;;;;;5008851;28;20050;-73
2023/12/23 04:48:38;;;;;;;33.92;8.32;;;;;;;;;;5013463;28;20369;-73
2023/12/23 04:51:04;;;;;;;19.13;6.00;;;;;;;;;;5011875;28;20497;-73
2023/12/23 04:53:30;;;;;;;34.05;7.82;;;;;;;;;;5007538;28;20057;-73
2023/12/23 04:55:56;;;;;;;29.90;6.53;;;;;;;;;;5009939;28;20049;-73
2023/12/23 04:58:22;;;;;;;27.63;5.90;;;;;;;;;;5009387;28;20049;-73
2023/12/23 05:00:48;;;;;;;29.73;6.72;;;;;;;;;;5010326;28;20057;-73
2023/12/23 05:03:14;;;;;;;27.55;6.93;;;;;;;;;;5009432;28;20045;-73
2023/12/23 05:05:41;;;;;;;26.27;6.75;;;;;;;;;;5028191;28;20061;-73
2023/12/23 05:08:07;;;;;;;26.38;7.20;;;;;;;;;;5022673;28;20497;-72
2023/12/23 05:10:33;;;;;;;25.92;6.35;;;;;;;;;;5007745;28;20132;-72
2023/12/23 05:12:59;;;;;;;31.60;6.47;;;;;;;;;;5009724;28;20041;-73
2023/12/23 05:15:25;;;;;;;31.65;7.25;;;;;;;;;;5009544;28;20405;-73
2023/12/23 05:17:51;;;;;;;26.55;6.53;;;;;;;;;;5010671;28;20053;-73
2023/12/23 05:20:17;;;;;;;39.22;7.88;;;;;;;;;;5007702;28;20049;-73
2023/12/23 05:22:43;;;;;;;29.20;7.35;;;;;;;;;;5031221;28;20057;-73
2023/12/23 05:25:13;;;;;;;20.90;6.55;;;;;;;;;;5006402;28;20104;-73
2023/12/23 05:27:39;;;;;;;28.23;6.53;;;;;;;;;;5010135;28;20106;-73
2023/12/23 05:30:05;;;;;;;24.98;7.88;;;;;;;;;;5009740;28;20056;-73
2023/12/23 05:32:31;;;;;;;33.95;8.27;;;;;;;;;;5012440;28;20119;-73
2023/12/23 05:34:57;;;;;;;34.25;8.32;;;;;;;;;;5012259;28;20053;-73
2023/12/23 05:37:23;;;;;;;25.35;6.75;;;;;;;;;;5007679;28;20053;-73
2023/12/23 05:39:49;;;;;;;21.40;7.18;;;;;;;;;;5028131;28;20508;-73
2023/12/23 05:42:16;;;;;;;23.23;6.38;;;;;;;;;;5009073;28;20485;-73
2023/12/23 05:44:42;;;;;;;37.17;7.15;;;;;;;;;;5013256;28;20437;-73
2023/12/23 05:47:08;;;;;;;29.13;6.70;;;;;;;;;;5028025;28;20049;-73
2023/12/23 05:49:34;;;;;;;33.05;8.23;;;;;;;;;;5027000;28;20371;-73
2023/12/23 05:52:00;;;;;;;29.08;7.32;;;;;;;;;;5015464;28;20125;-73
2023/12/23 05:54:26;;;;;;;20.38;6.10;;;;;;;;;;5010931;28;20050;-72
2023/12/23 05:56:52;;;;;;;30.70;7.05;;;;;;;;;;5009743;28;20559;-73
2023/12/23 05:59:18;;;;;;;29.45;6.25;;;;;;;;;;5007187;28;20100;-73
2023/12/23 06:01:44;;;;;;;29.30;7.68;;;;;;;;;;5015815;28;20045;-73
2023/12/23 06:04:10;;;;;;;36.67;6.82;;;;;;;;;;5014033;28;20053;-73
2023/12/23 06:06:36;;;;;;;31.33;7.60;;;;;;;;;;5009311;28;20088;-73
2023/12/23 06:09:03;;;;;;;27.98;6.90;;;;;;;;;;5012130;28;20061;-72
2023/12/23 06:11:29;;;;;;;23.85;6.13;;;;;;;;;;5004918;28;20060;-72
2023/12/23 06:13:55;;;;;;;22.30;5.68;;;;;;;;;;5012169;28;20132;-73
2023/12/23 06:16:24;;;;;;;24.60;6.32;;;;;;;;;;5029059;28;20137;-73
2023/12/23 06:18:50;;;;;;;29.60;7.03;;;;;;;;;;5009751;28;20430;-73
2023/12/23 06:21:16;;;;;;;28.17;6.32;;;;;;;;;;5013214;28;20455;-72
2023/12/23 06:23:42;;;;;;;21.20;5.70;;;;;;;;;;5011881;28;20393;-73
2023/12/23 06:26:10;;;;;;;24.45;5.65;;;;;;;;;;5017202;28;20042;-73
2023/12/23 06:28:36;;;;;;;25.08;6.45;;;;;;;;;;5006575;28;20056;-73
2023/12/23 06:31:02;;;;;;;23.80;6.22;;;;;;;;;;5007339;28;20091;-73
2023/12/23 06:33:28;;;;;;;32.60;7.45;;;;;;;;;;5007532;28;20037;-72
2023/12/23 06:35:54;;;;;;;25.98;6.22;;;;;;;;;;5010658;28;20045;-72
2023/12/23 06:38:20;;;;;;;32.83;6.13;;;;;;;;;;5008993;28;20044;-72
2023/12/23 06:40:46;;;;;;;33.35;7.10;;;;;;;;;;5010242;28;20088;-72
2023/12/23 06:43:12;;;;;;;28.77;6.70;;;;;;;;;;5011002;28;20046;-72
2023/12/23 06:45:38;;;;;;;25.83;6.88;;;;;;;;;;5009275;28;20053;-73
2023/12/23 06:48:04;;;;;;;27.30;6.13;;;;;;;;;;5004284;28;20053;-73
2023/12/23 06:50:30;;;;;;;15.48;5.18;;;;;;;;;;5007574;28;20068;-73
2023/12/23 06:52:56;;;;;;;38.80;8.07;;;;;;;;;;5012675;28;20049;-73
2023/12/23 06:55:22;;;;;;;34.13;6.75;;;;;;;;;;5024359;28;20499;-73
2023/12/23 06:57:48;;;;;;;30.80;7.97;;;;;;;;;;5027627;28;20586;-72
2023/12/23 07:00:15;;;;;;;28.02;6.55;;;;;;;;;;5008013;28;20072;-72
2023/12/23 07:02:41;;;;;;;27.70;7.40;;;;;;;;;;5004978;28;20041;-72
2023/12/23 07:05:07;;;;;;;32.70;6.80;;;;;;;;;;5009246;28;20057;-73
2023/12/23 07:07:33;;;;;;;35.05;8.63;;;;;;;;;;5008195;28;20053;-73
2023/12/23 07:09:59;;;;;;;30.30;6.60;;;;;;;;;;5008612;28;20058;-72
2023/12/23 07:12:25;;;;;;;29.23;6.40;;;;;;;;;;5025776;28;20127;-73
2023/12/23 07:14:51;;;;;;;22.45;6.57;;;;;;;;;;5011625;28;20457;-72
2023/12/23 07:17:17;;;;;;;29.60;7.05;;;;;;;;;;5009504;28;20080;-73
2023/12/23 07:19:43;;;;;;;25.13;6.32;;;;;;;;;;5005920;28;20136;-72
2023/12/23 07:22:09;;;;;;;21.65;5.90;;;;;;;;;;5010515;28;20128;-72
2023/12/23 07:24:35;;;;;;;28.60;5.55;;;;;;;;;;5007459;28;20411;-72
2023/12/23 07:27:04;;;;;;;21.17;5.32;;;;;;;;;;5003334;28;20132;-72
2023/12/23 07:29:30;;;;;;;22.08;6.22;;;;;;;;;;5005218;28;20046;-73
2023/12/23 07:31:56;;;;;;;23.48;5.28;;;;;;;;;;5005438;28;20041;-72
2023/12/23 07:34:22;;;;;;;23.20;7.05;;;;;;;;;;5027287;28;20034;-72
2023/12/23 07:36:48;;;;;;;35.40;6.10;;;;;;;;;;5007386;28;20057;-73
2023/12/23 07:39:17;;;;;;;22.67;5.03;;;;;;;;;;5007201;28;20049;-72
2023/12/23 07:41:46;;;;;;;20.38;6.30;;;;;;;;;;5021263;28;20049;-72
2023/12/23 07:44:12;;;;;;;26.02;6.72;;;;;;;;;;5022707;28;20488;-72
2023/12/23 07:46:38;;;;;;;21.27;5.55;;;;;;;;;;5019627;28;20053;-73
2023/12/23 07:49:04;;;;;;;25.98;5.60;;;;;;;;;;5001891;28;20044;-72
2023/12/23 07:51:30;;;;;;;23.27;5.20;;;;;;;;;;5003118;28;20053;-72
2023/12/23 07:53:56;;;;;;;26.30;5.88;;;;;;;;;;5005163;28;20111;-72
2023/12/23 07:56:24;;;;;;;23.77;4.78;;;;;;;;;;5004626;28;20287;-73
2023/12/23 07:58:50;;;;;;;23.85;6.47;;;;;;;;;;5003151;28;20052;-72
2023/12/23 08:01:16;;;;;;;22.85;5.30;;;;;;;;;;5003519;28;20128;-72
2023/12/23 08:03:42;;;;;;;27.45;5.55;;;;;;;;;;5003473;28;20473;-73
2023/12/23 08:06:08;;;;;;;30.83;6.65;;;;;;;;;;4999641;28;20049;-73
2023/12/23 08:08:34;;;;;;;25.52;6.18;;;;;;;;;;5003618;28;20049;-72
2023/12/23 08:11:00;;;;;;;18.38;5.28;;;;;;;;;;5002126;28;20124;-72
2023/12/23 08:13:30;;;;;;;26.02;6.80;;;;;;;;;;5003847;28;20119;-73
2023/12/23 08:15:56;;;;;;;26.77;6.32;;;;;;;;;;5004592;28;21010;-72
2023/12/23 08:18:22;;;;;;;24.90;5.95;;;;;;;;;;5007740;28;20124;-73
2023/12/23 08:20:48;;;;;;;20.77;4.57;;;;;;;;;;5004031;28;20049;-72
2023/12/23 08:23:14;;;;;;;22.88;4.35;;;;;;;;;;5007393;28;20125;-73
2023/12/23 08:25:40;;;;;;;26.30;5.82;;;;;;;;;;5006852;28;20120;-73
2023/12/23 08:28:07;;;;;;;18.00;5.55;;;;;;;;;;5025139;28;20073;-73
2023/12/23 08:30:33;;;;;;;27.98;6.78;;;;;;;;;;5001941;28;20125;-73
2023/12/23 08:32:59;;;;;;;23.85;5.82;;;;;;;;;;5004169;28;20493;-72
2023/12/23 08:35:25;;;;;;;22.65;6.93;;;;;;;;;;5005666;28;20041;-72
2023/12/23 08:37:51;;;;;;;23.38;4.95;;;;;;;;;;5026006;28;20103;-72
2023/12/23 08:40:17;;;;;;;27.52;6.10;;;;;;;;;;5023732;28;20060;-73
2023/12/23 08:42:44;;;;;;;22.67;5.70;;;;;;;;;;5007698;28;20042;-72
2023/12/23 08:45:10;;;;;;;32.20;6.75;;;;;;;;;;5008070;28;20060;-72
2023/12/23 08:47:36;;;;;;;26.75;6.95;;;;;;;;;;5004118;28;20045;-73
2023/12/23 08:50:02;;;;;;;21.08;6.53;;;;;;;;;;5020505;28;20136;-73
2023/12/23 08:52:28;;;;;;;22.65;5.18;;;;;;;;;;5010107;28;20082;-72
2023/12/23 08:54:54;;;;;;;26.48;6.72;;;;;;;;;;5010214;28;20041;-73
2023/12/23 08:57:20;;;;;;;25.80;6.40;;;;;;;;;;5006169;28;20073;-72
2023/12/23 08:59:46;;;;;;;29.35;6.82;;;;;;;;;;5008391;28;20049;-72
2023/12/23 09:02:12;;;;;;;27.08;5.75;;;;;;;;;;5004263;28;20041;-72
2023/12/23 09:04:38;;;;;;;29.83;7.57;;;;;;;;;;5004529;28;20049;-72
2023/12/23 09:07:04;;;;;;;24.92;6.25;;;;;;;;;;4994096;28;20085;-72
2023/12/23 09:09:30;;;;;;;31.02;7.03;;;;;;;;;;5017285;28;20528;-72
2023/12/23 09:11:56;;;;;;;26.60;6.55;;;;;;;;;;5010348;28;20060;-73
2023/12/23 09:14:23;;;;;;;26.95;6.15;;;;;;;;;;5030370;28;20482;-72
2023/12/23 09:16:49;;;;;;;24.60;4.85;;;;;;;;;;5012466;28;20084;-72
2023/12/23 09:19:15;;;;;;;22.40;5.25;;;;;;;;;;5015688;28;20478;-72
2023/12/23 09:21:41;;;;;;;22.70;5.35;;;;;;;;;;5032195;28;20048;-71
2023/12/23 09:24:07;;;;;;;24.95;5.45;;;;;;;;;;5013534;28;20180;-72
2023/12/23 09:26:33;;;;;;;28.45;6.95;;;;;;;;;;5014833;28;20064;-72
2023/12/23 09:29:00;;;;;;;29.77;6.72;;;;;;;;;;5003215;28;20452;-72
2023/12/23 09:31:26;;;;;;;25.05;5.03;;;;;;;;;;5027767;28;20045;-71
2023/12/23 09:33:52;;;;;;;24.10;6.97;;;;;;;;;;5009000;28;20046;-72
2023/12/23 09:36:18;;;;;;;27.05;5.93;;;;;;;;;;4999049;28;20092;-72
2023/12/23 09:38:44;;;;;;;29.83;6.38;;;;;;;;;;4997932;28;20052;-72
2023/12/23 09:41:10;;;;;;;19.80;5.65;;;;;;;;;;5009779;28;20052;-73
2023/12/23 09:43:36;;;;;;;26.13;6.05;;;;;;;;;;5006879;28;20128;-72
2023/12/23 09:46:04;;;;;;;24.98;6.28;;;;;;;;;;5011004;28;20042;-72
2023/12/23 09:48:30;;;;;;;20.45;5.20;;;;;;;;;;5005287;28;20045;-72
2023/12/23 09:50:56;;;;;;;24.30;6.00;;;;;;;;;;5001853;28;20405;-72
2023/12/23 09:53:22;;;;;;;27.08;5.60;;;;;;;;;;5006086;28;20125;-72
2023/12/23 09:55:51;;;;;;;24.63;5.15;;;;;;;;;;5006979;28;20153;-71
2023/12/23 09:58:21;;;;;;;20.60;6.00;;;;;;;;;;5008441;28;20037;-71
2023/12/23 10:00:47;;;;;;;20.75;4.88;;;;;;;;;;5004838;28;20749;-72
2023/12/23 10:03:13;;;;;;;23.75;5.18;;;;;;;;;;5005687;28;20456;-71
2023/12/23 10:05:43;;;;;;;20.23;5.03;;;;;;;;;;5003111;28;20053;-72
2023/12/23 10:08:09;;;;;;;25.15;5.90;;;;;;;;;;5005603;28;20496;-72
2023/12/23 10:10:35;;;;;;;22.23;5.45;;;;;;;;;;5010076;28;20537;-72
2023/12/23 10:13:01;;;;;;;23.92;5.22;;;;;;;;;;5001625;28;20056;-72
2023/12/23 10:15:29;;;;;;;26.58;5.75;;;;;;;;;;5007958;28;20191;-74
2023/12/23 10:17:55;;;;;;;24.52;6.00;;;;;;;;;;5009331;28;20470;-72
2023/12/23 10:20:21;;;;;;;34.78;8.30;;;;;;;;;;5005504;28;20099;-72
2023/12/23 10:22:48;;;;;;;32.15;7.53;;;;;;;;;;5010086;28;20489;-72
2023/12/23 10:25:14;;;;;;;20.65;5.18;;;;;;;;;;5009020;28;20136;-72
2023/12/23 10:27:41;;;;;;;28.52;5.93;;;;;;;;;;5012996;28;20485;-72
2023/12/23 10:30:11;;;;;;;23.95;6.25;;;;;;;;;;5007187;28;20087;-72
2023/12/23 10:32:37;;;;;;;27.13;5.90;;;;;;;;;;5015542;28;20129;-74
2023/12/23 10:35:05;;;;;;;19.98;5.18;;;;;;;;;;5005366;28;20133;-72
2023/12/23 10:37:33;;;;;;;27.08;5.32;;;;;;;;;;5012809;28;20069;-72
2023/12/23 10:40:05;;;;;;;24.10;6.10;;;;;;;;;;5006109;28;20048;-72
2023/12/23 10:42:31;;;;;;;24.58;5.68;;;;;;;;;;5011440;28;20049;-74
2023/12/23 10:44:59;;;;;;;21.08;5.85;;;;;;;;;;5012729;28;20448;-74
2023/12/23 10:47:27;;;;;;;19.20;5.60;;;;;;;;;;5013309;28;20046;-72
2023/12/23 10:49:57;;;;;;;25.88;5.35;;;;;;;;;;5012988;28;20052;-72
2023/12/23 10:52:23;;;;;;;30.77;7.50;;;;;;;;;;5015992;28;20077;-72
2023/12/23 10:54:49;;;;;;;18.58;5.47;;;;;;;;;;5025194;28;20070;-72
2023/12/23 10:57:16;;;;;;;23.50;4.13;;;;;;;;;;5008187;28;20486;-71
2023/12/23 10:59:42;;;;;;;22.80;6.00;;;;;;;;;;5007875;28;20044;-71
2023/12/23 11:02:14;;;;;;;14.10;5.28;;;;;;;;;;5007164;28;20049;-72
2023/12/23 11:04:43;;;;;;;27.30;6.65;;;;;;;;;;5011761;28;20417;-72
2023/12/23 11:07:10;;;;;;;19.70;5.70;;;;;;;;;;5024261;28;20053;-72
2023/12/23 11:09:37;;;;;;;23.23;5.63;;;;;;;;;;5025232;28;20497;-72
2023/12/23 11:12:03;;;;;;;15.65;3.75;;;;;;;;;;5003722;28;20068;-72
2023/12/23 11:14:29;;;;;;;20.77;5.20;;;;;;;;;;5010188;28;20077;-72
2023/12/23 11:16:58;;;;;;;28.75;5.65;;;;;;;;;;5010723;28;20128;-72
2023/12/23 11:19:25;;;;;;;18.70;4.43;;;;;;;;;;5011162;28;20103;-73
2023/12/23 11:22:11;;;;;;;21.10;5.55;;;;;;;;;;5020006;28;20115;-72
2023/12/23 11:24:37;;;;;;;17.55;4.25;;;;;;;;;;5012465;28;20084;-72
2023/12/23 11:27:04;;;;;;;21.25;4.88;;;;;;;;;;5000410;28;20084;-72
2023/12/23 11:29:30;;;;;;;25.23;5.75;;;;;;;;;;5001855;28;20056;-72
2023/12/23 11:32:14;;;;;;;19.83;5.05;;;;;;;;;;5005326;28;20038;-71
2023/12/23 11:34:41;;;;;;;19.75;4.68;;;;;;;;;;5005068;28;20092;-72
2023/12/23 11:37:07;;;;;;;23.10;5.28;;;;;;;;;;5009358;28;20103;-71
2023/12/23 11:39:36;;;;;;;20.58;4.50;;;;;;;;;;5008882;28;20064;-72
2023/12/23 11:42:02;;;;;;;20.20;5.50;;;;;;;;;;5008053;28;20103;-71
2023/12/23 11:44:28;;;;;;;25.30;5.47;;;;;;;;;;5013236;28;20045;-72
2023/12/23 11:46:55;;;;;;;19.25;5.18;;;;;;;;;;5013577;28;20045;-72
2023/12/23 11:49:21;;;;;;;23.55;5.22;;;;;;;;;;5005777;28;20570;-72
2023/12/23 11:51:47;;;;;;;19.25;4.70;;;;;;;;;;5000060;28;20147;-72
2023/12/23 11:54:13;;;;;;;21.17;5.13;;;;;;;;;;5013200;28;20049;-72
2023/12/23 11:56:40;;;;;;;28.33;5.20;;;;;;;;;;5008714;28;20045;-72
2023/12/23 11:59:06;;;;;;;26.40;5.97;;;;;;;;;;4998594;28;20531;-71
2023/12/23 12:01:35;;;;;;;23.42;5.00;;;;;;;;;;5001111;28;20064;-72
2023/12/23 12:04:01;;;;;;;17.08;4.18;;;;;;;;;;4999230;28;20073;-72
2023/12/23 12:06:27;;;;;;;32.30;5.95;;;;;;;;;;4994902;28;20069;-72
2023/12/23 12:08:54;;;;;;;17.70;4.72;;;;;;;;;;5006308;28;20059;-73
2023/12/23 12:11:22;;;;;;;28.25;5.85;;;;;;;;;;5009015;28;20096;-72
2023/12/23 12:13:48;;;;;;;27.10;6.95;;;;;;;;;;5018718;28;20076;-73
2023/12/23 12:16:14;;;;;;;27.30;6.55;;;;;;;;;;5009375;28;20049;-72
2023/12/23 12:18:41;;;;;;;30.52;6.05;;;;;;;;;;4997054;28;20114;-73
2023/12/23 12:21:07;;;;;;;17.90;5.22;;;;;;;;;;5007997;28;20355;-72
2023/12/23 12:23:34;;;;;;;21.95;4.80;;;;;;;;;;5025496;28;20045;-72
2023/12/23 12:26:00;;;;;;;25.83;5.53;;;;;;;;;;5008689;28;20084;-72
2023/12/23 12:28:27;;;;;;;17.15;3.90;;;;;;;;;;5008816;28;20140;-72
2023/12/23 12:30:53;;;;;;;26.35;5.65;;;;;;;;;;5003158;28;20464;-72
2023/12/23 12:33:19;;;;;;;23.55;5.20;;;;;;;;;;5023419;28;20042;-73
2023/12/23 12:35:46;;;;;;;23.58;5.57;;;;;;;;;;5005691;28;20055;-73
2023/12/23 12:38:12;;;;;;;16.30;5.05;;;;;;;;;;5003765;28;20516;-75
2023/12/23 12:40:40;;;;;;;21.60;5.30;;;;;;;;;;5007836;28;20057;-75
2023/12/23 12:43:06;;;;;;;15.80;4.68;;;;;;;;;;5009942;28;20045;-75
2023/12/23 12:45:36;;;;;;;25.23;5.30;;;;;;;;;;5012220;28;20164;-74
2023/12/23 12:48:05;;;;;;;15.73;4.00;;;;;;;;;;5011521;28;20132;-74
2023/12/23 12:50:31;;;;;;;22.15;5.13;;;;;;;;;;5025558;28;20053;-74
2023/12/23 12:53:01;;;;;;;16.38;4.50;;;;;;;;;;5027863;28;20098;-74
2023/12/23 12:55:27;;;;;;;28.10;5.75;;;;;;;;;;5009810;28;21427;-73
2023/12/23 12:57:54;;;;;;;16.65;4.93;;;;;;;;;;5006035;28;20046;-73
2023/12/23 13:00:21;;;;;;;24.42;5.07;;;;;;;;;;5007571;28;20057;-74
2023/12/23 13:02:47;;;;;;;24.48;5.53;;;;;;;;;;5010230;28;20049;-74
2023/12/23 13:05:13;;;;;;;20.70;5.60;;;;;;;;;;5011720;28;20060;-74
2023/12/23 13:07:43;;;;;;;15.52;3.97;;;;;;;;;;5005079;28;20144;-73
2023/12/23 13:10:09;;;;;;;15.10;4.40;;;;;;;;;;5011898;28;20114;-73
2023/12/23 13:12:35;;;;;;;24.48;5.80;;;;;;;;;;5007814;28;20042;-74
2023/12/23 13:15:02;;;;;;;15.88;4.70;;;;;;;;;;5007532;28;20037;-73
2023/12/23 13:17:28;;;;;;;23.20;5.75;;;;;;;;;;5027341;28;20054;-73
2023/12/23 13:19:55;;;;;;;14.10;4.72;;;;;;;;;;5012915;28;20396;-73
2023/12/23 13:22:21;;;;;;;25.17;5.32;;;;;;;;;;5010732;28;20563;-72
2023/12/23 13:24:47;;;;;;;20.33;4.18;;;;;;;;;;5030474;28;20092;-73
2023/12/23 13:27:13;;;;;;;20.70;5.63;;;;;;;;;;5010186;28;20045;-73
2023/12/23 13:29:39;;;;;;;23.35;5.45;;;;;;;;;;5006799;28;20056;-73
2023/12/23 13:32:07;;;;;;;26.23;6.18;;;;;;;;;;5010610;28;20041;-73
2023/12/23 13:34:33;;;;;;;16.48;4.63;;;;;;;;;;5012424;28;20033;-73
2023/12/23 13:36:59;;;;;;;23.30;5.65;;;;;;;;;;5010679;28;20462;-73
2023/12/23 13:39:25;;;;;;;19.90;5.85;;;;;;;;;;5009114;28;20422;-73
2023/12/23 13:41:51;;;;;;;16.80;4.68;;;;;;;;;;5009651;28;20207;-73
2023/12/23 13:44:17;;;;;;;23.63;5.47;;;;;;;;;;5007340;28;20127;-72
2023/12/23 13:46:44;;;;;;;29.40;5.28;;;;;;;;;;5007520;28;20033;-72
2023/12/23 13:49:12;;;;;;;27.55;5.28;;;;;;;;;;5011508;28;20107;-72
2023/12/23 13:51:39;;;;;;;18.83;4.88;;;;;;;;;;5027031;28;20045;-72
2023/12/23 13:54:05;;;;;;;24.33;6.25;;;;;;;;;;5029927;28;20489;-72
2023/12/23 13:56:31;;;;;;;15.63;4.82;;;;;;;;;;5008212;28;20084;-74
2023/12/23 13:58:57;;;;;;;21.35;5.57;;;;;;;;;;5009101;28;20099;-75
2023/12/23 14:01:23;;;;;;;18.67;4.05;;;;;;;;;;5005638;28;20046;-76
2023/12/23 14:03:49;;;;;;;19.83;4.78;;;;;;;;;;5011341;28;20076;-76
2023/12/23 14:06:15;;;;;;;18.13;5.10;;;;;;;;;;5009370;28;20099;-75
2023/12/23 14:08:41;;;;;;;15.57;4.05;;;;;;;;;;5011999;28;20050;-75
2023/12/23 14:11:07;;;;;;;18.35;4.90;;;;;;;;;;5010629;28;20099;-80
2023/12/23 14:13:34;;;;;;;24.58;5.00;;;;;;;;;;5008886;28;20375;-81
2023/12/23 14:16:00;;;;;;;20.25;5.47;;;;;;;;;;5008537;28;20107;-80
2023/12/23 14:18:26;;;;;;;17.25;4.55;;;;;;;;;;5006771;28;20045;-80
2023/12/23 14:20:52;;;;;;;18.85;4.45;;;;;;;;;;5027355;28;20048;-81
2023/12/23 14:23:21;;;;;;;21.90;6.70;;;;;;;;;;5004260;28;20050;-81
2023/12/23 14:25:47;;;;;;;20.02;4.78;;;;;;;;;;5001779;28;20045;-80
2023/12/23 14:28:13;;;;;;;16.15;5.03;;;;;;;;;;5026517;28;20041;-80